Bookmark and Share
Track history (hours):
 

Maersk Lirquen

Last reported at 2014-Apr-23 14:32 UTC. Time now 2014-Apr-23 15:24 UTC.
Position N 51°58' E 004°03'.

Length 300 m; draft 9.7 m.

Type: Ship (hazmat cat A). MMSI: 477423500.

NotesDate/timePositionNaut miles runAvg speedWind from/ knotsBaromVisibWave heightAir tempDewpointWater temp
2014-Apr-23 14:32N 51°58' E 004°03'0 0.0
2014-Apr-23 13:32N 51°58' E 004°03'0 0.0
2014-Apr-23 12:32N 51°57' E 004°03'0 0.0
2014-Apr-23 11:32N 51°58' E 004°03'0 0.0
2014-Apr-23 10:32N 51°58' E 004°03'0 0.0
2014-Apr-23 09:32N 51°58' E 004°03'0 0.0
2014-Apr-23 08:32N 51°58' E 004°03'0 0.0
2014-Apr-23 07:32N 51°58' E 004°03'0 0.0
2014-Apr-23 06:29N 51°58' E 004°03'0 0.0
2014-Apr-23 05:33N 51°58' E 004°03'2 1.6
2014-Apr-23 04:33N 51°59' E 004°03'1010.2
2014-Apr-23 03:33N 51°59' E 003°47'1413.9
2014-Apr-23 02:33N 51°55' E 003°25'1615.8
2014-Apr-23 01:33N 51°50' E 003°01'1616.1
2014-Apr-23 00:33N 51°51' E 002°35'1817.3
2014-Apr-22 23:31N 51°52' E 002°06'1516.0
2014-Apr-22 22:33N 51°51' E 001°41'1313.0
2014-Apr-22 21:33N 51°41' E 001°27'1817.5
2014-Apr-22 20:34N 51°31' E 001°04'1717.2
2014-Apr-22 19:34N 51°30' E 000°37'1110.8
2014-Apr-22 18:34N 51°27' E 000°20'0 0.3
2014-Apr-22 17:34N 51°28' E 000°20'0 0.0
2014-Apr-22 16:33N 51°28' E 000°20'0 0.0
2014-Apr-22 15:33N 51°28' E 000°20'0 0.0
2014-Apr-22 14:34N 51°28' E 000°20'0 0.0
2014-Apr-22 13:33N 51°28' E 000°20'0 0.0
2014-Apr-22 12:34N 51°28' E 000°20'0 0.0
2014-Apr-22 11:33N 51°28' E 000°20'0 0.0
2014-Apr-22 10:34N 51°28' E 000°20'0 0.0
2014-Apr-22 09:34N 51°28' E 000°20'0 0.0
2014-Apr-22 08:33N 51°28' E 000°20'0 0.0
2014-Apr-22 07:33N 51°28' E 000°20'0 0.0
2014-Apr-22 06:34N 51°28' E 000°20'2 1.6
2014-Apr-22 05:34N 51°27' E 000°22'6 6.5
2014-Apr-22 04:33N 51°30' E 000°31'1211.8
2014-Apr-22 03:33N 51°29' E 000°50'1313.4
2014-Apr-22 02:33N 51°29' E 001°12'1312.6
2014-Apr-22 01:33N 51°29' E 001°32'1717.4
2014-Apr-22 00:33N 51°26' E 001°59'1212.4
2014-Apr-21 23:34N 51°13' E 002°02'1414.1
2014-Apr-21 22:34N 51°06' E 001°43'1313.4
2014-Apr-21 21:33N 50°56' E 001°28'1413.7
2014-Apr-21 20:32N 50°43' E 001°21'1513.7
2014-Apr-21 19:28N 50°33' E 001°04'1213.4
2014-Apr-21 18:33N 50°28' E 000°47'1313.2
2014-Apr-21 17:33N 50°24' E 000°27'1313.2
2014-Apr-21 16:33N 50°20' E 000°07'1413.4
2014-Apr-21 15:33N 50°16' W 000°13'1413.8
2014-Apr-21 14:34N 50°13' W 000°34'1313.5
2014-Apr-21 13:33N 50°10' W 000°54'1413.5
2014-Apr-21 12:33N 50°06' W 001°15'1413.8
2014-Apr-21 11:34N 50°03' W 001°35'1615.4
2014-Apr-21 10:33N 49°59' W 001°59'1017.6
2014-Apr-21 10:00N 49°54' W 002°12'5614.0 140 / 151005.510.8 1.011.0 7.914.0
2014-Apr-21 06:00N 49°30' W 003°30'44413.9 140 / 231003.0 5.4 2.010.0 7.911.0
2014-Apr-19 22:00N 43°24' W 009°36'8414.1 330 / 111009.010.8 1.013.010.116.0
2014-Apr-19 16:00N 42°00' W 009°48'23414.2 020 / 91008.910.8 0.514.2 9.615.0
2014-Apr-18 23:33N 38°06' W 009°41'1414.0
2014-Apr-18 22:33N 37°52' W 009°38'1018.8
2014-Apr-18 22:00N 37°42' W 009°36'3 6.7 010 / 221016.910.8 2.516.510.918.0
2014-Apr-18 21:33N 37°39' W 009°34'1313.5
2014-Apr-18 20:33N 37°26' W 009°30'1413.7
2014-Apr-18 19:33N 37°13' W 009°26'1513.9
2014-Apr-18 18:29N 36°58' W 009°22'1613.4
2014-Apr-18 17:18N 36°45' W 009°10'1114.1
2014-Apr-18 16:30N 36°41' W 008°58'1314.2
2014-Apr-18 15:34N 36°36' W 008°42'1414.2
2014-Apr-18 14:33N 36°31' W 008°25'2014.3
2014-Apr-18 13:10N 36°24' W 008°02'4616.7
2014-Apr-18 10:26N 36°09' W 007°09'7515.3
2014-Apr-18 05:33N 35°57' W 005°38'1313.7
2014-Apr-18 04:33N 36°04' W 005°23'5 5.4
2014-Apr-18 03:33N 36°09' W 005°26'0 0.0
2014-Apr-18 02:31N 36°09' W 005°26'0 0.0
2014-Apr-18 01:31N 36°09' W 005°26'0 0.0
2014-Apr-18 00:31N 36°09' W 005°26'0 0.0
2014-Apr-17 23:31N 36°09' W 005°26'0 0.0
2014-Apr-17 22:31N 36°09' W 005°26'0 0.0
2014-Apr-17 21:31N 36°09' W 005°26'0 0.0
2014-Apr-17 20:31N 36°09' W 005°26'0 0.0
2014-Apr-17 19:31N 36°09' W 005°26'0 0.0
2014-Apr-17 18:31N 36°09' W 005°26'0 0.0
2014-Apr-17 17:31N 36°09' W 005°26'0 0.0
2014-Apr-17 16:31N 36°09' W 005°26'0 0.0
2014-Apr-17 15:31N 36°09' W 005°26'0 0.0
2014-Apr-17 14:33N 36°09' W 005°26'0 0.0
2014-Apr-17 13:31N 36°09' W 005°26'0 0.0
2014-Apr-17 12:31N 36°09' W 005°26'0 0.0
2014-Apr-17 11:34N 36°09' W 005°26'1 1.2
2014-Apr-17 10:29N 36°09' W 005°25'0 0.0
2014-Apr-17 09:32N 36°09' W 005°25'0 0.1
2014-Apr-17 08:08N 36°09' W 005°25'0 0.1
2014-Apr-17 07:33N 36°09' W 005°25'0 0.0
2014-Apr-17 06:32N 36°09' W 005°25'0 0.1
2014-Apr-17 05:32N 36°09' W 005°25'0 0.2
2014-Apr-17 04:32N 36°09' W 005°24'4 4.5
2014-Apr-17 03:33N 36°05' W 005°23'1110.7
2014-Apr-17 02:33N 35°56' W 005°31'1716.5
2014-Apr-17 01:32N 35°53' W 005°51'2217.1
2014-Apr-17 00:15N 35°42' W 006°14'4520.0
2014-Apr-16 22:00N 35°06' W 006°48'12718.1 010 / 171018.310.8 1.518.014.620.0
2014-Apr-16 15:00N 33°36' W 008°36'66320.1 020 / 151016.710.8 0.520.014.218.0
2014-Apr-15 06:00N 24°54' W 016°24'7919.8 020 / 101014.810.8 1.019.015.619.0
2014-Apr-15 02:00N 23°42' W 017°00'18020.0 070 / 91014.910.8 0.520.516.423.0
2014-Apr-14 17:00N 21°00' W 018°24'11419.0 020 / 91013.910.8 0.521.517.520.0
2014-Apr-14 11:00N 19°18' W 019°18'16520.6 030 / 151016.010.8 1.521.516.624.0
2014-Apr-14 03:00N 16°48' W 020°30'19719.7 040 / 171014.810.8 1.023.520.426.2
2014-Apr-13 17:00N 13°48' W 021°54'   020 / 141011.410.8 0.523.819.522.0

Dump ship's entire track history

sailing weather and tide predictions

Maersk Lirquen — VRKB8 — position and weather